RJTE(METAR)
08/23 01:00
METAR RJTE 221600Z 24006KT 9999 FEW020 BKN230 27/24 Q1011 RMK 1CU020
A2988=
戻る
トップページへ戻る
IMOC Co,.Ltd.